Flight Track Log - Related Links

Times and Time Zones

All times are in EDT time to prevent confusion due to time zone crossing. See the SKW5592 flight status page for this flight to view local times or setup timezone preferences in your user account.

Time Position Orientation Groundspeed Altitude Reporting Facility
EDT Latitude Longitude Course Direction KTS MPH feet Rate Location/Type
Fri 12:10:15 PM 35.3662 -97.6000 217° Southwest  Level FlightAware Approximate
Fri 12:11:15 PM 35.3500 -97.7226 112° Southeast  Level FlightAware Approximate
Fri 12:12:32 PM 35.3225 -97.6400 280° West 199 229 4,300  Level Fort Worth Center
Fri 12:13:21 PM 35.3308 -97.7011 280° West 223 257 6,300 2,100 Climbing Fort Worth Center
Fri 12:15:12 PM 35.3514 -97.8411 271° West 241 277 9,900 1,930 Climbing Fort Worth Center
Fri 12:16:12 PM 35.3531 -97.9250 268° West 246 283 11,800 1,850 Climbing Fort Worth Center
Fri 12:17:12 PM 35.3506 -98.0117 268° West 257 296 13,600 1,700 Climbing Fort Worth Center
Fri 12:18:12 PM 35.3481 -98.1136 269° West 265 305 15,200 1,500 Climbing Fort Worth Center
Fri 12:19:12 PM 35.3472 -98.2103 270° West 279 321 16,600 1,400 Climbing Fort Worth Center
Fri 12:20:12 PM 35.3467 -98.3094 268° West 290 334 18,000 1,450 Climbing Fort Worth Center
Fri 12:21:12 PM 35.3439 -98.4111 269° West 290 334 19,500 1,250 Climbing Fort Worth Center
Fri 12:22:12 PM 35.3431 -98.5106 268° West 290 334 20,500 1,000 Climbing Fort Worth Center
Fri 12:23:12 PM 35.3400 -98.6197 268° West 302 348 21,500 1,000 Climbing Fort Worth Center
Fri 12:24:12 PM 35.3367 -98.7267 269° West 312 359 22,500 1,000 Climbing Fort Worth Center
Fri 12:25:12 PM 35.3356 -98.8386 269° West 323 372 23,500 1,000 Climbing Fort Worth Center
Fri 12:26:12 PM 35.3342 -98.9481 268° West 328 377 24,500 900 Climbing Fort Worth Center
Fri 12:27:12 PM 35.3311 -99.0369 267° West 328 377 25,300 900 Climbing Fort Worth Center
Fri 12:28:12 PM 35.3253 -99.1539 270° West 328 377 26,300 950 Climbing Fort Worth Center
Fri 12:29:12 PM 35.3258 -99.2608 268° West 328 377 27,200 839 Climbing Fort Worth Center
Fri 12:31:25 PM 35.3183 -99.5025 268° West 329 379 29,000 808 Climbing Albuquerque Center
Fri 12:32:25 PM 35.3150 -99.6125 268° West 329 379 29,800 650 Climbing Albuquerque Center
Fri 12:33:25 PM 35.3117 -99.7222 269° West 329 379 30,300 550 Climbing Albuquerque Center
Fri 12:34:25 PM 35.3103 -99.8344 266° West 335 386 30,900 550 Climbing Albuquerque Center
Fri 12:35:25 PM 35.3047 -99.9442 268° West 335 386 31,400 500 Climbing Albuquerque Center
Fri 12:36:25 PM 35.3011 -100.0542 268° West 335 386 31,900 300 Climbing Albuquerque Center
Fri 12:37:25 PM 35.2975 -100.1689 269° West 335 386 32,000 50 Climbing Albuquerque Center
Fri 12:38:25 PM 35.2961 -100.2861 267° West 335 386 32,000  Level Albuquerque Center
Fri 12:39:25 PM 35.2906 -100.4036 266° West 346 398 32,000  Level Albuquerque Center
Fri 12:40:25 PM 35.2833 -100.5289 268° West 358 412 32,000  Level Albuquerque Center
Fri 12:41:25 PM 35.2800 -100.6539 268° West 369 425 32,000  Level Albuquerque Center
Fri 12:42:25 PM 35.2764 -100.7789 267° West 369 425 32,000  Level Albuquerque Center
Fri 12:43:25 PM 35.2708 -100.9067 267° West 374 430 32,000  Level Albuquerque Center
Fri 12:44:25 PM 35.2653 -101.0369 267° West 381 438 32,000  Level Albuquerque Center
Fri 12:45:25 PM 35.2594 -101.1669 267° West 386 444 32,000  Level Albuquerque Center
Fri 12:46:25 PM 35.2536 -101.2947 268° West 386 444 32,000  Level Albuquerque Center
Fri 12:47:25 PM 35.2503 -101.4375 263° West 392 451 32,000  Level Albuquerque Center
Fri 12:48:25 PM 35.2375 -101.5603 283° West 387 445 32,000  Level Albuquerque Center
Fri 12:49:25 PM 35.2625 -101.6883 311° West 381 438 32,000  Level Albuquerque Center
Fri 12:50:25 PM 35.3317 -101.7853 324° Northwest 371 427 32,000  Level Albuquerque Center
Fri 12:51:25 PM 35.4186 -101.8633 322° Northwest 384 442 32,000  Level Albuquerque Center
Fri 12:52:25 PM 35.4931 -101.9347 323° Northwest 390 449 32,000  Level Albuquerque Center
Fri 12:53:25 PM 35.5778 -102.0133 323° Northwest 381 438 32,000  Level Albuquerque Center
Fri 12:54:25 PM 35.6606 -102.0897 324° Northwest 386 444 32,000  Level Albuquerque Center
Fri 12:55:25 PM 35.7497 -102.1708 323° Northwest 386 444 32,000  Level Albuquerque Center
Fri 12:56:25 PM 35.8367 -102.2522 323° Northwest 386 444 32,000  Level Albuquerque Center
Fri 12:57:25 PM 35.9236 -102.3339 323° Northwest 386 444 32,000  Level Albuquerque Center
Fri 12:58:25 PM 36.0125 -102.4153 323° Northwest 386 444 32,000  Level Albuquerque Center
Fri 12:59:25 PM 36.0994 -102.4975 323° Northwest 391 450 32,000  Level Albuquerque Center
Fri 01:00:25 PM 36.1861 -102.5794 322° Northwest 391 450 32,000  Level Albuquerque Center
Fri 01:01:25 PM 36.2728 -102.6644 324° Northwest 391 450 32,000  Level Albuquerque Center
Fri 01:02:25 PM 36.3617 -102.7442 322° Northwest 391 450 32,000  Level Albuquerque Center
Fri 01:03:25 PM 36.4481 -102.8269 324° Northwest 386 444 32,000  Level Albuquerque Center
Fri 01:04:25 PM 36.5453 -102.9144 323° Northwest 386 444 32,000  Level Albuquerque Center
Fri 01:05:25 PM 36.6231 -102.9875 323° Northwest 386 444 32,000  Level Albuquerque Center
Fri 01:06:25 PM 36.7117 -103.0708 321° Northwest 386 444 32,000  Level Albuquerque Center
Fri 01:07:25 PM 36.8047 -103.1642 324° Northwest 386 444 32,000  Level Albuquerque Center
Fri 01:08:25 PM 36.8931 -103.2450 322° Northwest 386 444 32,000  Level Albuquerque Center
Fri 01:10:44 PM 37.0872 -103.4350 323° Northwest 400 460 32,000  Level Denver Center
Fri 01:11:44 PM 37.1853 -103.5272 332° Northwest 400 460 32,000  Level Denver Center
Fri 01:12:44 PM 37.2831 -103.5939 356° North 400 460 32,000  Level Denver Center
Fri 01:13:44 PM 37.3936 -103.6025 359° North 413 475 32,000 -300 Level Denver Center
Fri 01:14:44 PM 37.5333 -103.6047 358° North 448 516 31,400 -800 Descending Denver Center
Fri 01:15:44 PM 37.6606 -103.6103 360° North 458 527 30,400 -700 Descending Denver Center
Fri 01:16:44 PM 37.7775 -103.6108 359° North 463 533 30,000 -150 Descending Denver Center
Fri 01:17:44 PM 37.9192 -103.6131 359° North 463 533 30,100  Climbing Denver Center
Fri 01:18:44 PM 38.0464 -103.6158 359° North 458 527 30,000 -50 Descending Denver Center
Fri 01:19:44 PM 38.1717 -103.6186 349° North 453 521 30,000  Level Denver Center
Fri 01:20:44 PM 38.2786 -103.6461 339° North 441 507 30,000  Level Denver Center
Fri 01:22:44 PM 38.5192 -103.7614 340° North 438 504 30,000  Level Denver Center
Fri 01:23:44 PM 38.6225 -103.8106 339° North 438 504 30,000 -250 Level Denver Center
Fri 01:24:44 PM 38.7364 -103.8675 339° North 438 504 29,500 -1,750 Descending Denver Center
Fri 01:25:44 PM 38.8567 -103.9269 341° North 446 513 26,500 -2,950 Descending Denver Center
Fri 01:26:44 PM 38.9661 -103.9764 340° North 435 501 23,600 -2,850 Descending Denver Center
Fri 01:27:44 PM 39.0714 -104.0261 338° Northwest 416 479 20,800 -2,900 Descending Denver Center
Fri 01:28:44 PM 39.1706 -104.0789 336° Northwest 394 453 17,800 -2,450 Descending Denver Center
Fri 01:29:44 PM 39.2656 -104.1344 321° Northwest 382 440 15,900 -1,800 Descending Denver Center
Fri 01:30:44 PM 39.3272 -104.1997 310° West 318 366 14,200 -1,400 Descending Denver Center
Fri 01:31:44 PM 39.3853 -104.2889 300° West 288 331 13,100 -550 Descending Denver Center
Fri 01:32:44 PM 39.4244 -104.3764 302° West 283 326 13,100 -50 Level Denver Center
Fri 01:33:44 PM 39.4656 -104.4614 301° West 277 319 13,000 -450 Descending Denver Center
Fri 01:34:44 PM 39.5025 -104.5411 294° West 269 310 12,200 -933 Descending Denver Center
Fri 01:35:14 PM 39.5167 -104.5833 330° Northwest 238 274 11,600 -1,400 Descending Denver TRACON
Fri 01:36:14 PM 39.5833 -104.6333 339° North 284 327 10,100 -1,300 Descending Denver TRACON
Fri 01:37:14 PM 39.6500 -104.6667 360° North 248 285 9,000 -1,450 Descending Denver TRACON
Fri 01:38:14 PM 39.7167 -104.6667 360° North 259 298 7,200 -1,800 Descending Denver TRACON

Login

Don't have an account? Register now (free) for customized features, flight alerts, and more!